メインページ
METAR-TAF:

METAR-TAF

空港 :

アール・マクトゥーム国際空港

ドバイ, アラブ首長国連邦

緯度: 24-53-49N, 経度: 55-09-40E, 海抜: 35m

現時点の気象観測

当レポートは10分前の17:00(UTC)に作成
西の風 7kt
気温 33°C
湿度 63%
気圧 1008 hPa
視程: 7000m

METAR: OMDW 251700Z 27007KT 7000 NSC 33/25 Q1008 NOSIG

時間: 21:10 (17:10 UTC)

予報

当レポートは6時間10分前の11:00(UTC)に作成
予報は25日の 12時(UTC)から 26日の 18時(UTC)まで有効
西の風 17kt
視程: 7000m
確率 30%
25日の 12時(UTC)から 25日の 14時(UTC)まで
視程: 4000m
広範な塵
25日の 16時(UTC)から 25日の 18時(UTC)まで徐々に
の風 8kt
確率 30%
26日の 02時(UTC)から 26日の 04時(UTC)まで
視程: 4000m
煙霧
26日の 08時(UTC)から 26日の 10時(UTC)まで徐々に
西/北西の風 15kt
26日の 15時(UTC)から 26日の 17時(UTC)まで徐々に
南/南東の風 5kt

TAF: OMDW 251100Z 2512/2618 28017KT 7000 NSC PROB30 2512/2514 4000 DU BECMG 2516/2518 17008KT PROB30 2602/2604 4000 HZ BECMG 2608/2610 29015KT BECMG 2615/2617 16005KT

4,000以上の空港の気象観測と天気予報(METAR報とTAF報)

利用可能な観測所は地図上に黄色い丸と赤い丸で示す。

丸の上にカーソルを重ねると観測所名を参照できる。

次にクリックすると気象観測と天気予報を参照できる。

マップの切り替え:黒色「×」印の緑ボタンをクリックして拡大、「-」印の緑ボタンをクリックして縮小、緑色の三角印をクリックして隣りの地図に切り替え


METAR-TAF: